createdAt,value
2022-08-17T00:06:12.103Z,100.00
2022-08-17T00:13:16.673Z,100.00
2022-08-17T00:20:20.538Z,100.00
2022-08-17T00:27:33.589Z,100.00
2022-08-17T00:34:35.815Z,100.00
2022-08-17T00:41:42.260Z,100.00
2022-08-17T00:48:45.047Z,100.00
2022-08-17T00:55:47.285Z,100.00
2022-08-17T01:02:50.938Z,100.00
2022-08-17T01:09:53.318Z,100.00
2022-08-17T01:16:55.590Z,100.00
2022-08-17T01:23:59.615Z,100.00
2022-08-17T01:31:03.263Z,100.00
2022-08-17T01:38:05.849Z,100.00
2022-08-17T01:45:12.077Z,100.00
2022-08-17T01:52:14.459Z,100.00
2022-08-17T01:59:16.872Z,100.00
2022-08-17T02:06:27.603Z,100.00
2022-08-17T02:13:30.793Z,100.00
2022-08-17T02:20:41.568Z,100.00
2022-08-17T02:27:46.804Z,100.00
2022-08-17T02:34:49.161Z,100.00
2022-08-17T02:41:57.003Z,100.00
2022-08-17T02:49:00.808Z,100.00
2022-08-17T02:56:03.418Z,100.00
2022-08-17T03:03:05.860Z,100.00
2022-08-17T03:10:10.185Z,100.00
2022-08-17T03:17:17.140Z,100.00
2022-08-17T03:24:19.782Z,100.00
2022-08-17T03:31:23.440Z,100.00
2022-08-17T03:38:25.806Z,100.00
2022-08-17T03:45:46.969Z,100.00
2022-08-17T03:53:09.220Z,100.00
2022-08-17T04:00:13.454Z,100.00
2022-08-17T04:07:15.694Z,100.00
2022-08-17T04:14:19.324Z,100.00
2022-08-17T04:21:21.593Z,100.00
2022-08-17T04:28:23.908Z,100.00
2022-08-17T04:35:28.600Z,100.00
2022-08-17T04:42:33.244Z,100.00
2022-08-17T04:49:35.491Z,100.00
2022-08-17T04:56:39.124Z,100.00
2022-08-17T05:03:41.931Z,100.00
2022-08-17T05:10:45.171Z,100.00
2022-08-17T05:17:49.317Z,100.00
2022-08-17T05:24:53.749Z,100.00
2022-08-17T05:31:57.949Z,100.00
2022-08-17T05:39:01.672Z,100.00
2022-08-17T05:46:06.340Z,100.00
2022-08-17T05:53:10.844Z,100.00
2022-08-17T06:00:20.148Z,100.00
2022-08-17T06:07:25.910Z,100.00
2022-08-17T06:14:33.598Z,100.00
2022-08-17T06:21:39.430Z,100.00
2022-08-17T06:28:43.420Z,93.98
2022-08-17T06:35:51.134Z,89.25
2022-08-17T06:43:05.300Z,94.70
2022-08-17T06:50:14.644Z,93.07
2022-08-17T06:57:19.533Z,88.28
2022-08-17T07:04:27.021Z,78.57
2022-08-17T07:11:33.923Z,77.82
2022-08-17T07:18:36.263Z,79.88
2022-08-17T07:25:40.131Z,77.66
2022-08-17T07:32:47.155Z,68.40
2022-08-17T07:40:15.550Z,65.43
2022-08-17T07:47:33.362Z,62.23
2022-08-17T07:54:36.830Z,61.05
2022-08-17T08:01:41.988Z,58.81
2022-08-17T08:08:50.487Z,58.47
2022-08-17T08:15:54.758Z,55.38
2022-08-17T08:23:02.521Z,58.05
2022-08-17T08:30:08.474Z,56.53
2022-08-17T08:37:18.064Z,56.41
2022-08-17T08:45:03.809Z,56.59
2022-08-17T08:51:58.963Z,55.68
2022-08-17T08:59:03.554Z,56.41
2022-08-17T09:06:33.313Z,56.10
2022-08-17T09:13:39.580Z,52.43
2022-08-17T09:20:49.911Z,55.83
2022-08-17T09:27:55.651Z,56.86
2022-08-17T09:35:01.897Z,57.54
2022-08-17T09:42:06.683Z,60.17
2022-08-17T09:49:10.655Z,63.56
2022-08-17T09:56:21.374Z,61.68
2022-08-17T10:03:32.361Z,61.05
2022-08-17T10:10:37.245Z,57.25
2022-08-17T10:17:50.568Z,56.19
2022-08-17T10:25:23.186Z,53.09
2022-08-17T10:32:28.326Z,50.95
2022-08-17T10:39:51.810Z,53.40
2022-08-17T10:47:02.832Z,55.57
2022-08-17T10:54:05.441Z,57.36
2022-08-17T11:01:12.719Z,70.53
2022-08-17T11:08:44.888Z,78.45
2022-08-17T11:15:51.463Z,78.71
2022-08-17T11:23:25.903Z,77.25
2022-08-17T11:30:47.042Z,76.80
2022-08-17T11:37:55.435Z,81.05
2022-08-17T11:44:59.764Z,87.39
2022-08-17T11:52:14.770Z,95.00
2022-08-17T11:59:58.815Z,94.17
2022-08-17T12:07:06.729Z,85.61
2022-08-17T12:14:10.762Z,75.77
2022-08-17T12:21:24.352Z,75.79
2022-08-17T12:28:28.854Z,70.10
2022-08-17T12:35:35.146Z,67.65
2022-08-17T12:42:39.230Z,57.67
2022-08-17T12:49:43.065Z,54.35
2022-08-17T12:56:45.491Z,49.48
2022-08-17T13:03:51.162Z,50.30
2022-08-17T13:10:56.472Z,53.33
2022-08-17T13:18:03.983Z,53.09
2022-08-17T13:25:09.397Z,53.93
2022-08-17T13:32:19.897Z,52.61
2022-08-17T13:39:23.512Z,52.61
2022-08-17T13:46:28.557Z,54.95
2022-08-17T13:53:35.342Z,54.40
2022-08-17T14:00:40.313Z,50.98
2022-08-17T14:07:42.551Z,47.57
2022-08-17T14:14:46.350Z,49.27
2022-08-17T14:21:48.928Z,46.53
2022-08-17T14:28:56.254Z,48.35
2022-08-17T14:36:02.912Z,48.32
2022-08-17T14:43:05.137Z,46.90
2022-08-17T14:50:11.302Z,46.66
2022-08-17T14:57:33.085Z,49.96
2022-08-17T15:04:36.160Z,47.39
2022-08-17T15:11:39.516Z,47.91
2022-08-17T15:18:43.180Z,48.29
2022-08-17T15:25:48.336Z,46.12
2022-08-17T15:32:54.946Z,49.05
2022-08-17T15:40:02.078Z,47.83
2022-08-17T15:47:04.555Z,47.01
2022-08-17T15:54:19.377Z,48.39
2022-08-17T16:01:40.509Z,49.27
2022-08-17T16:08:49.559Z,46.98
2022-08-17T16:15:57.197Z,46.76
2022-08-17T16:23:01.078Z,48.53
2022-08-17T16:30:03.862Z,50.59
2022-08-17T16:37:06.149Z,54.43
2022-08-17T16:44:09.958Z,52.93
2022-08-17T16:51:17.943Z,54.37
2022-08-17T16:58:21.819Z,55.33
2022-08-17T17:05:33.133Z,55.64
2022-08-17T17:13:03.310Z,56.41
2022-08-17T17:20:00.625Z,58.26
2022-08-17T17:27:10.948Z,57.88
2022-08-17T17:34:14.332Z,56.89
2022-08-17T17:41:25.316Z,57.13
2022-08-17T17:48:29.843Z,59.93
2022-08-17T17:55:36.761Z,64.11
2022-08-17T18:02:51.257Z,68.91
2022-08-17T18:10:03.173Z,73.38
2022-08-17T18:17:06.275Z,76.75
2022-08-17T18:24:10.645Z,81.07
2022-08-17T18:31:20.692Z,84.11
2022-08-17T18:38:28.996Z,87.50
2022-08-17T18:45:33.496Z,89.35
2022-08-17T18:52:37.069Z,94.63
2022-08-17T18:59:40.582Z,97.72
2022-08-17T19:06:42.879Z,99.02
2022-08-17T19:13:50.077Z,100.00
2022-08-17T19:20:56.256Z,100.00
2022-08-17T19:28:04.025Z,100.00
2022-08-17T19:35:20.044Z,100.00
2022-08-17T19:42:31.020Z,100.00
2022-08-17T19:49:41.397Z,100.00
2022-08-17T19:56:55.561Z,100.00
2022-08-17T20:04:00.092Z,100.00
2022-08-17T20:11:03.235Z,100.00
2022-08-17T20:18:10.901Z,100.00
2022-08-17T20:25:15.805Z,100.00
2022-08-17T20:32:25.189Z,100.00
2022-08-17T20:39:34.600Z,100.00
2022-08-17T20:47:03.706Z,100.00
2022-08-17T20:54:28.116Z,100.00
2022-08-17T21:01:39.725Z,100.00
2022-08-17T21:08:53.343Z,100.00
2022-08-17T21:15:58.897Z,100.00
2022-08-17T21:23:24.307Z,100.00
2022-08-17T21:30:46.934Z,100.00
2022-08-17T21:37:50.492Z,100.00
2022-08-17T21:44:55.553Z,100.00
2022-08-17T21:51:57.845Z,100.00
2022-08-17T21:59:01.705Z,100.00
2022-08-17T22:06:21.469Z,100.00
2022-08-17T22:13:24.385Z,100.00
2022-08-17T22:20:32.141Z,97.95
2022-08-17T22:27:49.422Z,100.00
2022-08-17T22:35:19.895Z,100.00
2022-08-17T22:42:22.116Z,100.00
2022-08-17T22:49:29.191Z,100.00
2022-08-17T22:56:50.396Z,100.00
2022-08-17T23:03:54.869Z,100.00
2022-08-17T23:11:00.258Z,100.00
2022-08-17T23:18:05.046Z,100.00
2022-08-17T23:25:08.217Z,100.00
2022-08-17T23:32:13.512Z,100.00
2022-08-17T23:39:15.732Z,100.00
2022-08-17T23:46:27.125Z,100.00
2022-08-17T23:53:30.823Z,100.00
